Time;durP1;ratioP1;P1;durP2;ratioP2;P2;SDS_P1;SDS_P2;PMS_P1;PMS_P2;Temp;Humidity;BMP_temperature;BMP_pressure;BME280_temperature;BME280_humidity;BME280_pressure;Samples;Min_cycle;Max_cycle;Signal;HPM_P1;HPM_P2
2021/08/19 00:03:36;;;;;;;4.8;1.5;;;;;;;13.34;100;98400.88;;;;
2021/08/19 00:13:35;;;;;;;5.1;2;;;;;;;13.38;100;98395.59;;;;
2021/08/19 00:23:35;;;;;;;4.6;1.7;;;;;;;13.39;100;98386.36;;;;
2021/08/19 00:33:34;;;;;;;11;3.1;;;;;;;13.34;100;98389.25;;;;
2021/08/19 00:43:33;;;;;;;4.9;2;;;;;;;13.41;100;98394.92;;;;
2021/08/19 00:53:33;;;;;;;3.2;2;;;;;;;13.67;100;98386.61;;;;
2021/08/19 01:03:32;;;;;;;3.7;2;;;;;;;13.72;100;98400.72;;;;
2021/08/19 01:13:31;;;;;;;4.4;2.2;;;;;;;13.44;100;98405.89;;;;
2021/08/19 01:23:30;;;;;;;4.4;2;;;;;;;13.29;100;98401.08;;;;
2021/08/19 01:33:30;;;;;;;5.8;2.5;;;;;;;13.21;100;98401.92;;;;
2021/08/19 01:43:29;;;;;;;5.3;2.4;;;;;;;13.09;100;98394.52;;;;
2021/08/19 01:53:28;;;;;;;5.2;2.8;;;;;;;13.05;100;98393.55;;;;
2021/08/19 02:03:27;;;;;;;3.8;1.9;;;;;;;13.08;100;98392.13;;;;
2021/08/19 02:13:27;;;;;;;3.7;1.7;;;;;;;13.26;100;98390.89;;;;
2021/08/19 02:23:26;;;;;;;3.6;2.1;;;;;;;13.48;100;98400.61;;;;
2021/08/19 02:33:25;;;;;;;7.3;2.2;;;;;;;13.39;100;98392.57;;;;
2021/08/19 02:43:24;;;;;;;3;1.8;;;;;;;13.23;100;98398.88;;;;
2021/08/19 02:53:23;;;;;;;4.1;2.7;;;;;;;13.16;100;98401.31;;;;
2021/08/19 03:03:23;;;;;;;3.7;2.5;;;;;;;13.05;100;98398.95;;;;
2021/08/19 03:13:22;;;;;;;2.6;1.5;;;;;;;12.95;100;98393.92;;;;
2021/08/19 03:23:21;;;;;;;3.8;1.5;;;;;;;12.78;100;98394.02;;;;
2021/08/19 03:33:20;;;;;;;3.6;1.8;;;;;;;12.65;100;98400.45;;;;
2021/08/19 03:43:20;;;;;;;2.6;1.6;;;;;;;12.67;100;98403.62;;;;
2021/08/19 03:53:18;;;;;;;4.7;1.5;;;;;;;12.62;100;98401.11;;;;
2021/08/19 04:03:18;;;;;;;3.6;1.7;;;;;;;12.61;100;98399.52;;;;
2021/08/19 04:13:17;;;;;;;3.7;2.1;;;;;;;12.83;100;98393.86;;;;
2021/08/19 04:23:16;;;;;;;4.4;2.2;;;;;;;13.16;100;98398.6;;;;
2021/08/19 04:33:15;;;;;;;2.5;1.3;;;;;;;13.53;100;98403.13;;;;
2021/08/19 04:43:14;;;;;;;3.9;1.8;;;;;;;13.77;100;98400.53;;;;
2021/08/19 04:53:14;;;;;;;2.3;1.1;;;;;;;14.16;100;98411.95;;;;
2021/08/19 05:03:13;;;;;;;2.6;1.7;;;;;;;14.72;100;98408.44;;;;
2021/08/19 05:13:12;;;;;;;4.1;1.3;;;;;;;14.76;100;98417.48;;;;
2021/08/19 05:23:12;;;;;;;2.7;0.8;;;;;;;15.19;100;98399.83;;;;
2021/08/19 05:33:11;;;;;;;3.1;1.6;;;;;;;15.58;100;98399.1;;;;
2021/08/19 05:43:11;;;;;;;5.2;2.5;;;;;;;15.85;100;98408.39;;;;
2021/08/19 05:53:10;;;;;;;2.6;1.3;;;;;;;16.21;100;98410.16;;;;
2021/08/19 06:03:10;;;;;;;3;1.8;;;;;;;16.69;100;98419.97;;;;
2021/08/19 06:13:10;;;;;;;1.8;0.8;;;;;;;17.4;100;98422.39;;;;
2021/08/19 06:23:11;;;;;;;3.6;1.2;;;;;;;17.72;100;98423.91;;;;
2021/08/19 06:33:09;;;;;;;2.8;1.5;;;;;;;18.17;100;98416.99;;;;
2021/08/19 06:43:09;;;;;;;3.5;1.6;;;;;;;18.16;100;98410.74;;;;
2021/08/19 06:53:09;;;;;;;3.5;1.9;;;;;;;18.43;100;98417.1;;;;
2021/08/19 07:03:09;;;;;;;2.8;1;;;;;;;18.49;100;98423.83;;;;
2021/08/19 07:13:09;;;;;;;2.6;1.4;;;;;;;19.2;100;98423.05;;;;
2021/08/19 07:23:09;;;;;;;1.9;0.8;;;;;;;20.11;100;98414.5;;;;
2021/08/19 07:33:11;;;;;;;2.4;1.1;;;;;;;20.45;100;98405.11;;;;
2021/08/19 07:43:09;;;;;;;3.6;1.6;;;;;;;20.92;100;98407.09;;;;
2021/08/19 07:53:11;;;;;;;4;2.2;;;;;;;21.31;100;98412.86;;;;
2021/08/19 08:03:10;;;;;;;2.6;1;;;;;;;21.28;100;98402.66;;;;
2021/08/19 08:13:11;;;;;;;3.6;2;;;;;;;21.9;100;98408.87;;;;
2021/08/19 08:23:11;;;;;;;3.1;1.5;;;;;;;22.03;100;98410.11;;;;
2021/08/19 08:33:12;;;;;;;4;1.5;;;;;;;22.12;100;98412.48;;;;
2021/08/19 08:43:12;;;;;;;2;0.9;;;;;;;21.72;100;98423.67;;;;
2021/08/19 08:53:13;;;;;;;5;2.1;;;;;;;22.15;100;98422.68;;;;
2021/08/19 09:03:13;;;;;;;3.7;1.6;;;;;;;22.66;100;98422.41;;;;
2021/08/19 09:13:14;;;;;;;1.9;1.1;;;;;;;22.54;100;98425.52;;;;
2021/08/19 09:23:14;;;;;;;2.2;1.2;;;;;;;23.03;100;98417.34;;;;
2021/08/19 09:33:15;;;;;;;4.4;1.6;;;;;;;23.04;100;98416.16;;;;
2021/08/19 09:43:16;;;;;;;5;1.5;;;;;;;23.24;100;98413.77;;;;
2021/08/19 09:53:16;;;;;;;3.3;1.4;;;;;;;23.6;95.46777;98427.48;;;;
2021/08/19 10:03:19;;;;;;;6.1;3.8;;;;;;;23.41;99.73438;98417.7;;;;
2021/08/19 10:13:17;;;;;;;2.3;1.1;;;;;;;23.7;88.67383;98408.19;;;;
2021/08/19 10:23:18;;;;;;;4.8;1.2;;;;;;;23.58;77.3252;98410.58;;;;
2021/08/19 10:33:19;;;;;;;4.7;1.5;;;;;;;23.83;79.3916;98423.08;;;;
2021/08/19 10:43:20;;;;;;;4.8;2.2;;;;;;;23.74;76.54004;98414.45;;;;
2021/08/19 10:53:21;;;;;;;2.9;1.6;;;;;;;23.89;78.83398;98407.71;;;;
2021/08/19 11:03:21;;;;;;;1.9;0.7;;;;;;;23.91;68.59375;98386.09;;;;
2021/08/19 11:13:22;;;;;;;2.8;1.2;;;;;;;24.82;70.91504;98381.16;;;;
2021/08/19 11:23:22;;;;;;;2.2;0.9;;;;;;;23.85;76.62891;98393.17;;;;
2021/08/19 11:33:23;;;;;;;3.2;1.5;;;;;;;23.54;71.25;98386.61;;;;
2021/08/19 11:43:24;;;;;;;2.3;1.2;;;;;;;23.76;72.02832;98392.83;;;;
2021/08/19 11:53:25;;;;;;;2;1;;;;;;;23.72;68.37695;98386.55;;;;
2021/08/19 12:03:25;;;;;;;2.6;1.3;;;;;;;23.97;66.71191;98387.23;;;;
2021/08/19 12:13:26;;;;;;;2.2;1;;;;;;;23.92;69.79395;98370.33;;;;
2021/08/19 12:23:27;;;;;;;2.2;1;;;;;;;23.42;74.89355;98383.52;;;;
2021/08/19 12:33:27;;;;;;;3;1;;;;;;;22.75;76.20996;98389.06;;;;
2021/08/19 12:43:28;;;;;;;5.6;1.8;;;;;;;22.74;77.33203;98387.48;;;;
2021/08/19 12:53:29;;;;;;;7.2;2.2;;;;;;;23.7;76.67188;98388.14;;;;
2021/08/19 13:03:29;;;;;;;2.3;1.3;;;;;;;24.52;74.02734;98379.05;;;;
2021/08/19 13:13:30;;;;;;;3.3;1;;;;;;;24.34;77.36426;98377.59;;;;
2021/08/19 13:23:31;;;;;;;3.7;1.3;;;;;;;23.93;77.63086;98369.16;;;;
2021/08/19 13:33:31;;;;;;;2.8;1.2;;;;;;;23.91;73.26563;98380.58;;;;
2021/08/19 13:43:32;;;;;;;6.7;1.3;;;;;;;23.96;76.42578;98373.86;;;;
2021/08/19 13:53:33;;;;;;;3.8;1.7;;;;;;;23.81;77.29688;98386.89;;;;
2021/08/19 14:03:33;;;;;;;3.8;1.5;;;;;;;23.61;72.31738;98396.02;;;;
2021/08/19 14:13:34;;;;;;;4.5;1.2;;;;;;;23.47;71.88965;98383.88;;;;
2021/08/19 14:23:35;;;;;;;3.3;1.3;;;;;;;22.96;73.67969;98389.84;;;;
2021/08/19 14:33:35;;;;;;;4.1;2.1;;;;;;;22.89;74.91016;98392.6;;;;
2021/08/19 14:43:36;;;;;;;4.5;1.4;;;;;;;23.39;77.0625;98392.53;;;;
2021/08/19 14:53:37;;;;;;;4.7;1.2;;;;;;;23.77;69.03613;98399.91;;;;
2021/08/19 15:03:37;;;;;;;4.6;1.1;;;;;;;23.23;71.88477;98389.41;;;;
2021/08/19 15:13:38;;;;;;;3.9;1.3;;;;;;;23.02;72.62012;98391.02;;;;
2021/08/19 15:23:38;;;;;;;2.5;1.5;;;;;;;22.78;77.93066;98396.52;;;;
2021/08/19 15:33:39;;;;;;;8.8;1.9;;;;;;;24.59;74.4707;98400.26;;;;
2021/08/19 15:43:39;;;;;;;6.1;3.1;;;;;;;23.79;79.18652;98408.55;;;;
2021/08/19 15:53:40;;;;;;;6.2;2.7;;;;;;;23.19;83.17383;98399.63;;;;
2021/08/19 16:03:40;;;;;;;4.4;1.9;;;;;;;23.46;78.82715;98411.8;;;;
2021/08/19 16:13:41;;;;;;;4.8;2;;;;;;;22.98;83.1377;98417.72;;;;
2021/08/19 16:23:41;;;;;;;5.2;1.8;;;;;;;22.25;85.07227;98415.67;;;;
2021/08/19 16:33:42;;;;;;;3.8;2.2;;;;;;;21.91;88.99023;98424.17;;;;
2021/08/19 16:43:42;;;;;;;5.9;2.1;;;;;;;21.75;92.85449;98426.44;;;;
2021/08/19 16:53:42;;;;;;;4.7;2.1;;;;;;;21.49;93.125;98424.72;;;;
2021/08/19 17:03:43;;;;;;;7.6;3.2;;;;;;;21.3;93.66895;98429.7;;;;
2021/08/19 17:13:43;;;;;;;7.4;5.7;;;;;;;21.12;95.43848;98429.58;;;;
2021/08/19 17:23:43;;;;;;;6.4;3.4;;;;;;;20.86;96.02539;98427.01;;;;
2021/08/19 17:33:43;;;;;;;9.6;3.7;;;;;;;20.48;97.90625;98423.52;;;;
2021/08/19 17:43:43;;;;;;;7.8;3.4;;;;;;;20.12;99.65918;98434.45;;;;
2021/08/19 17:53:43;;;;;;;6.3;3;;;;;;;19.54;100;98429.45;;;;
2021/08/19 18:03:43;;;;;;;5.2;2.4;;;;;;;19.09;100;98427.56;;;;
2021/08/19 18:13:43;;;;;;;3.8;2.3;;;;;;;18.67;100;98435.88;;;;
2021/08/19 18:23:43;;;;;;;4;2.1;;;;;;;18.55;100;98447.76;;;;
2021/08/19 18:33:43;;;;;;;6.9;3.1;;;;;;;18.42;100;98443.59;;;;
2021/08/19 18:43:43;;;;;;;8.9;4.5;;;;;;;18.46;100;98457.31;;;;
2021/08/19 18:53:43;;;;;;;8.7;3.7;;;;;;;18.48;100;98463.97;;;;
2021/08/19 19:03:43;;;;;;;4.7;2.2;;;;;;;18.49;100;98481.94;;;;
2021/08/19 19:13:42;;;;;;;5.4;3.2;;;;;;;18.47;100;98481.48;;;;
2021/08/19 19:23:42;;;;;;;6.7;2.8;;;;;;;18.39;100;98484.47;;;;
2021/08/19 19:33:42;;;;;;;4.9;3.1;;;;;;;18.32;100;98493.3;;;;
2021/08/19 19:43:42;;;;;;;4.8;3.3;;;;;;;18.2;100;98487.98;;;;
2021/08/19 19:53:42;;;;;;;4.9;3.6;;;;;;;18.13;100;98482.39;;;;
2021/08/19 20:03:42;;;;;;;7.3;4;;;;;;;18.03;100;98478.3;;;;
2021/08/19 20:13:41;;;;;;;7.6;4.8;;;;;;;17.89;100;98497.09;;;;
2021/08/19 20:23:41;;;;;;;7.8;4.5;;;;;;;17.77;100;98493.72;;;;
2021/08/19 20:33:41;;;;;;;8.7;4.2;;;;;;;17.71;100;98501.38;;;;
2021/08/19 20:43:41;;;;;;;6.2;3.6;;;;;;;17.69;100;98505.6;;;;
2021/08/19 20:53:40;;;;;;;6.2;3.5;;;;;;;17.72;100;98504.89;;;;
2021/08/19 21:03:40;;;;;;;6.3;4.6;;;;;;;17.62;100;98508.17;;;;
2021/08/19 21:13:40;;;;;;;7.8;4.4;;;;;;;17.63;100;98516;;;;
2021/08/19 21:23:40;;;;;;;7.3;3.8;;;;;;;17.59;100;98521.38;;;;
2021/08/19 21:33:39;;;;;;;7.4;4.7;;;;;;;17.63;100;98526.91;;;;
2021/08/19 21:43:39;;;;;;;5.2;3.3;;;;;;;17.66;100;98531.64;;;;
2021/08/19 21:53:39;;;;;;;8.2;3.6;;;;;;;17.63;100;98540.53;;;;
2021/08/19 22:03:39;;;;;;;6.6;4.3;;;;;;;17.71;100;98547.7;;;;
2021/08/19 22:13:38;;;;;;;7;4.1;;;;;;;17.69;100;98549.22;;;;
2021/08/19 22:23:38;;;;;;;6.9;4.2;;;;;;;17.7;100;98564.44;;;;
2021/08/19 22:33:38;;;;;;;7.1;3.5;;;;;;;17.49;100;98561.97;;;;
2021/08/19 22:43:38;;;;;;;7.2;4.3;;;;;;;17.39;100;98568.72;;;;
2021/08/19 22:53:39;;;;;;;6.6;3.7;;;;;;;17.43;100;98574.27;;;;
2021/08/19 23:03:37;;;;;;;6.4;3.8;;;;;;;17.59;100;98577.81;;;;
2021/08/19 23:13:37;;;;;;;7;4.8;;;;;;;17.64;100;98580.25;;;;
2021/08/19 23:23:37;;;;;;;9.7;4.8;;;;;;;17.43;100;98577.78;;;;
2021/08/19 23:33:36;;;;;;;7;3;;;;;;;17.45;100;98578.23;;;;
2021/08/19 23:43:36;;;;;;;6;2.8;;;;;;;17.51;100;98579.55;;;;
2021/08/19 23:53:36;;;;;;;7.7;3.5;;;;;;;17.46;100;98584.45;;;;
